sensor_id;sensor_type;location;lat;lon;timestamp;P1;durP1;ratioP1;P2;durP2;ratioP2
1785;SDS011;890;48.158;11.540;2024-03-23T00:51:22;4.47;;;2.70;;
1785;SDS011;890;48.158;11.540;2024-03-23T00:53:49;3.40;;;2.37;;
1785;SDS011;890;48.158;11.540;2024-03-23T00:56:15;3.70;;;2.70;;
1785;SDS011;890;48.158;11.540;2024-03-23T00:58:44;3.20;;;2.90;;
1785;SDS011;890;48.158;11.540;2024-03-23T01:01:13;3.60;;;3.00;;
1785;SDS011;890;48.158;11.540;2024-03-23T01:03:39;2.90;;;2.40;;
1785;SDS011;890;48.158;11.540;2024-03-23T01:06:07;4.40;;;2.40;;
1785;SDS011;890;48.158;11.540;2024-03-23T01:09:08;2.40;;;2.20;;
1785;SDS011;890;48.158;11.540;2024-03-23T01:11:37;4.57;;;3.10;;
1785;SDS011;890;48.158;11.540;2024-03-23T01:14:05;3.37;;;2.50;;
1785;SDS011;890;48.158;11.540;2024-03-23T01:16:36;2.80;;;2.50;;
1785;SDS011;890;48.158;11.540;2024-03-23T01:19:01;5.03;;;2.80;;
1785;SDS011;890;48.158;11.540;2024-03-23T01:21:27;3.27;;;2.80;;
1785;SDS011;890;48.158;11.540;2024-03-23T01:23:53;3.20;;;2.40;;
1785;SDS011;890;48.158;11.540;2024-03-23T01:26:19;2.80;;;2.50;;
1785;SDS011;890;48.158;11.540;2024-03-23T01:28:44;2.80;;;2.50;;
1785;SDS011;890;48.158;11.540;2024-03-23T01:31:10;2.57;;;2.20;;
1785;SDS011;890;48.158;11.540;2024-03-23T01:33:36;3.17;;;2.27;;
1785;SDS011;890;48.158;11.540;2024-03-23T01:36:04;3.70;;;2.70;;
1785;SDS011;890;48.158;11.540;2024-03-23T01:38:31;3.00;;;2.60;;
1785;SDS011;890;48.158;11.540;2024-03-23T01:40:59;3.37;;;2.60;;
1785;SDS011;890;48.158;11.540;2024-03-23T01:43:25;3.10;;;2.30;;
1785;SDS011;890;48.158;11.540;2024-03-23T01:45:51;3.33;;;2.80;;
1785;SDS011;890;48.158;11.540;2024-03-23T01:48:18;4.20;;;2.77;;
1785;SDS011;890;48.158;11.540;2024-03-23T01:50:45;2.80;;;2.50;;
1785;SDS011;890;48.158;11.540;2024-03-23T01:53:11;3.20;;;2.90;;
1785;SDS011;890;48.158;11.540;2024-03-23T01:55:40;3.10;;;2.80;;
1785;SDS011;890;48.158;11.540;2024-03-23T01:58:06;2.80;;;2.60;;
1785;SDS011;890;48.158;11.540;2024-03-23T02:00:33;3.13;;;2.50;;
1785;SDS011;890;48.158;11.540;2024-03-23T02:02:59;2.83;;;2.63;;
1785;SDS011;890;48.158;11.540;2024-03-23T02:05:24;2.67;;;2.47;;
1785;SDS011;890;48.158;11.540;2024-03-23T02:07:50;2.87;;;2.60;;
1785;SDS011;890;48.158;11.540;2024-03-23T02:10:16;3.13;;;2.67;;
1785;SDS011;890;48.158;11.540;2024-03-23T02:12:42;3.80;;;2.80;;
1785;SDS011;890;48.158;11.540;2024-03-23T02:15:07;2.90;;;2.60;;
1785;SDS011;890;48.158;11.540;2024-03-23T02:17:34;3.53;;;2.90;;
1785;SDS011;890;48.158;11.540;2024-03-23T02:20:01;3.10;;;2.60;;
1785;SDS011;890;48.158;11.540;2024-03-23T02:22:37;3.33;;;2.60;;
1785;SDS011;890;48.158;11.540;2024-03-23T02:25:06;2.60;;;2.40;;
1785;SDS011;890;48.158;11.540;2024-03-23T02:27:32;3.00;;;2.70;;
1785;SDS011;890;48.158;11.540;2024-03-23T02:29:59;3.47;;;2.80;;
1785;SDS011;890;48.158;11.540;2024-03-23T02:32:25;3.23;;;2.73;;
1785;SDS011;890;48.158;11.540;2024-03-23T02:34:51;3.00;;;2.70;;
1785;SDS011;890;48.158;11.540;2024-03-23T02:37:17;2.37;;;2.17;;
1785;SDS011;890;48.158;11.540;2024-03-23T02:39:42;3.40;;;2.70;;
1785;SDS011;890;48.158;11.540;2024-03-23T02:42:08;3.90;;;3.03;;
1785;SDS011;890;48.158;11.540;2024-03-23T02:44:34;2.90;;;2.30;;
1785;SDS011;890;48.158;11.540;2024-03-23T02:46:59;3.80;;;3.03;;
1785;SDS011;890;48.158;11.540;2024-03-23T02:49:26;6.60;;;3.23;;
1785;SDS011;890;48.158;11.540;2024-03-23T02:51:52;3.20;;;2.90;;
1785;SDS011;890;48.158;11.540;2024-03-23T02:54:18;4.03;;;3.00;;
1785;SDS011;890;48.158;11.540;2024-03-23T02:56:43;2.97;;;2.60;;
1785;SDS011;890;48.158;11.540;2024-03-23T02:59:09;2.77;;;2.57;;
1785;SDS011;890;48.158;11.540;2024-03-23T03:01:35;3.30;;;3.00;;
1785;SDS011;890;48.158;11.540;2024-03-23T03:04:01;4.07;;;2.70;;
1785;SDS011;890;48.158;11.540;2024-03-23T03:06:26;2.60;;;2.30;;
1785;SDS011;890;48.158;11.540;2024-03-23T03:08:52;4.50;;;3.03;;
1785;SDS011;890;48.158;11.540;2024-03-23T03:11:18;3.13;;;2.80;;
1785;SDS011;890;48.158;11.540;2024-03-23T03:13:44;3.27;;;2.97;;
1785;SDS011;890;48.158;11.540;2024-03-23T03:16:10;3.97;;;2.87;;
1785;SDS011;890;48.158;11.540;2024-03-23T03:18:38;3.67;;;2.60;;
1785;SDS011;890;48.158;11.540;2024-03-23T03:21:05;3.60;;;2.40;;
1785;SDS011;890;48.158;11.540;2024-03-23T03:23:35;2.67;;;2.47;;
1785;SDS011;890;48.158;11.540;2024-03-23T03:26:02;4.77;;;2.70;;
1785;SDS011;890;48.158;11.540;2024-03-23T03:28:28;2.83;;;2.63;;
1785;SDS011;890;48.158;11.540;2024-03-23T03:30:56;3.70;;;2.43;;
1785;SDS011;890;48.158;11.540;2024-03-23T03:33:22;2.90;;;2.60;;
1785;SDS011;890;48.158;11.540;2024-03-23T03:35:48;2.53;;;2.20;;
1785;SDS011;890;48.158;11.540;2024-03-23T03:38:14;3.13;;;2.60;;
1785;SDS011;890;48.158;11.540;2024-03-23T03:40:39;3.67;;;2.63;;
1785;SDS011;890;48.158;11.540;2024-03-23T03:43:07;3.30;;;3.00;;
1785;SDS011;890;48.158;11.540;2024-03-23T03:45:32;5.50;;;2.93;;
1785;SDS011;890;48.158;11.540;2024-03-23T03:47:58;3.07;;;2.70;;
1785;SDS011;890;48.158;11.540;2024-03-23T03:50:24;3.20;;;2.80;;
1785;SDS011;890;48.158;11.540;2024-03-23T03:52:50;3.23;;;2.93;;
1785;SDS011;890;48.158;11.540;2024-03-23T03:55:16;3.03;;;2.77;;
1785;SDS011;890;48.158;11.540;2024-03-23T03:57:42;3.37;;;2.60;;
1785;SDS011;890;48.158;11.540;2024-03-23T04:00:08;2.83;;;2.63;;
1785;SDS011;890;48.158;11.540;2024-03-23T04:02:37;3.43;;;2.70;;
1785;SDS011;890;48.158;11.540;2024-03-23T04:05:03;3.90;;;2.83;;
1785;SDS011;890;48.158;11.540;2024-03-23T04:07:29;3.20;;;2.90;;
1785;SDS011;890;48.158;11.540;2024-03-23T04:09:54;2.53;;;2.33;;
1785;SDS011;890;48.158;11.540;2024-03-23T04:12:20;3.90;;;2.77;;
1785;SDS011;890;48.158;11.540;2024-03-23T04:14:46;3.13;;;2.63;;
1785;SDS011;890;48.158;11.540;2024-03-23T04:17:12;3.73;;;2.70;;
1785;SDS011;890;48.158;11.540;2024-03-23T04:19:37;3.20;;;2.90;;
1785;SDS011;890;48.158;11.540;2024-03-23T04:22:04;3.87;;;3.03;;
1785;SDS011;890;48.158;11.540;2024-03-23T04:24:30;2.70;;;2.47;;
1785;SDS011;890;48.158;11.540;2024-03-23T04:26:55;3.27;;;2.97;;
1785;SDS011;890;48.158;11.540;2024-03-23T04:29:21;3.70;;;2.50;;
1785;SDS011;890;48.158;11.540;2024-03-23T04:31:47;2.73;;;2.53;;
1785;SDS011;890;48.158;11.540;2024-03-23T04:34:13;3.20;;;2.90;;
1785;SDS011;890;48.158;11.540;2024-03-23T04:36:39;3.13;;;2.80;;
1785;SDS011;890;48.158;11.540;2024-03-23T04:39:05;3.07;;;2.60;;
1785;SDS011;890;48.158;11.540;2024-03-23T04:41:33;2.93;;;2.63;;
1785;SDS011;890;48.158;11.540;2024-03-23T04:44:00;2.80;;;2.50;;
1785;SDS011;890;48.158;11.540;2024-03-23T04:46:26;8.63;;;3.30;;
1785;SDS011;890;48.158;11.540;2024-03-23T04:48:52;3.00;;;2.73;;
1785;SDS011;890;48.158;11.540;2024-03-23T04:51:21;5.20;;;2.57;;
1785;SDS011;890;48.158;11.540;2024-03-23T04:53:50;3.70;;;2.90;;
1785;SDS011;890;48.158;11.540;2024-03-23T04:56:16;3.57;;;2.33;;
1785;SDS011;890;48.158;11.540;2024-03-23T04:58:42;2.63;;;2.33;;
1785;SDS011;890;48.158;11.540;2024-03-23T05:01:08;3.43;;;2.43;;
1785;SDS011;890;48.158;11.540;2024-03-23T05:03:35;2.93;;;2.73;;
1785;SDS011;890;48.158;11.540;2024-03-23T05:06:01;3.13;;;2.50;;
1785;SDS011;890;48.158;11.540;2024-03-23T05:08:26;4.00;;;2.60;;
1785;SDS011;890;48.158;11.540;2024-03-23T05:10:52;2.43;;;2.23;;
1785;SDS011;890;48.158;11.540;2024-03-23T05:13:18;2.53;;;2.33;;
1785;SDS011;890;48.158;11.540;2024-03-23T05:15:43;2.50;;;2.30;;
1785;SDS011;890;48.158;11.540;2024-03-23T05:18:09;2.97;;;2.67;;
1785;SDS011;890;48.158;11.540;2024-03-23T05:20:35;2.80;;;2.50;;
1785;SDS011;890;48.158;11.540;2024-03-23T05:23:01;2.67;;;2.47;;
1785;SDS011;890;48.158;11.540;2024-03-23T05:25:26;2.30;;;2.03;;
1785;SDS011;890;48.158;11.540;2024-03-23T05:27:52;3.20;;;2.40;;
1785;SDS011;890;48.158;11.540;2024-03-23T05:30:18;2.33;;;2.00;;
1785;SDS011;890;48.158;11.540;2024-03-23T05:32:44;2.90;;;2.70;;
1785;SDS011;890;48.158;11.540;2024-03-23T05:35:10;3.13;;;2.40;;
1785;SDS011;890;48.158;11.540;2024-03-23T05:37:36;2.87;;;2.53;;
1785;SDS011;890;48.158;11.540;2024-03-23T05:40:02;4.17;;;2.60;;
1785;SDS011;890;48.158;11.540;2024-03-23T05:42:28;3.00;;;2.73;;
1785;SDS011;890;48.158;11.540;2024-03-23T05:44:54;3.60;;;2.90;;
1785;SDS011;890;48.158;11.540;2024-03-23T05:47:20;3.23;;;2.60;;
1785;SDS011;890;48.158;11.540;2024-03-23T05:49:46;2.90;;;2.47;;
1785;SDS011;890;48.158;11.540;2024-03-23T05:52:12;2.80;;;2.40;;
1785;SDS011;890;48.158;11.540;2024-03-23T05:54:38;2.50;;;2.20;;
1785;SDS011;890;48.158;11.540;2024-03-23T05:57:04;2.60;;;1.90;;
1785;SDS011;890;48.158;11.540;2024-03-23T05:59:32;4.63;;;2.20;;
1785;SDS011;890;48.158;11.540;2024-03-23T06:01:58;3.33;;;2.60;;
1785;SDS011;890;48.158;11.540;2024-03-23T06:04:24;2.10;;;1.93;;
1785;SDS011;890;48.158;11.540;2024-03-23T06:06:50;3.50;;;2.00;;
1785;SDS011;890;48.158;11.540;2024-03-23T06:09:17;2.13;;;1.93;;
1785;SDS011;890;48.158;11.540;2024-03-23T06:11:44;2.30;;;2.10;;
1785;SDS011;890;48.158;11.540;2024-03-23T06:14:10;3.33;;;2.10;;
1785;SDS011;890;48.158;11.540;2024-03-23T06:16:35;2.70;;;2.30;;
1785;SDS011;890;48.158;11.540;2024-03-23T06:19:01;2.80;;;2.33;;
1785;SDS011;890;48.158;11.540;2024-03-23T06:21:29;2.27;;;1.97;;
1785;SDS011;890;48.158;11.540;2024-03-23T06:23:55;2.40;;;2.20;;
1785;SDS011;890;48.158;11.540;2024-03-23T06:26:21;2.40;;;2.00;;
1785;SDS011;890;48.158;11.540;2024-03-23T06:28:47;2.87;;;2.13;;
1785;SDS011;890;48.158;11.540;2024-03-23T06:31:13;2.30;;;1.97;;
1785;SDS011;890;48.158;11.540;2024-03-23T06:33:38;2.17;;;1.97;;
1785;SDS011;890;48.158;11.540;2024-03-23T06:36:06;2.30;;;2.00;;
1785;SDS011;890;48.158;11.540;2024-03-23T06:38:33;2.17;;;1.97;;
1785;SDS011;890;48.158;11.540;2024-03-23T06:41:00;3.30;;;2.10;;
1785;SDS011;890;48.158;11.540;2024-03-23T06:43:28;2.77;;;1.93;;
1785;SDS011;890;48.158;11.540;2024-03-23T06:45:54;2.40;;;1.73;;
1785;SDS011;890;48.158;11.540;2024-03-23T06:48:20;2.93;;;2.17;;
1785;SDS011;890;48.158;11.540;2024-03-23T06:50:46;2.70;;;2.10;;
1785;SDS011;890;48.158;11.540;2024-03-23T06:53:12;2.63;;;2.43;;
1785;SDS011;890;48.158;11.540;2024-03-23T06:55:39;4.00;;;2.07;;
1785;SDS011;890;48.158;11.540;2024-03-23T06:58:05;2.03;;;1.83;;
1785;SDS011;890;48.158;11.540;2024-03-23T07:00:31;2.77;;;2.27;;
1785;SDS011;890;48.158;11.540;2024-03-23T07:03:00;1.93;;;1.70;;
1785;SDS011;890;48.158;11.540;2024-03-23T07:05:26;2.53;;;2.17;;
1785;SDS011;890;48.158;11.540;2024-03-23T07:07:52;4.10;;;2.80;;
1785;SDS011;890;48.158;11.540;2024-03-23T07:10:18;3.20;;;2.00;;
1785;SDS011;890;48.158;11.540;2024-03-23T07:12:44;5.10;;;2.10;;
1785;SDS011;890;48.158;11.540;2024-03-23T07:15:10;5.53;;;2.40;;
1785;SDS011;890;48.158;11.540;2024-03-23T07:17:36;3.87;;;2.37;;
1785;SDS011;890;48.158;11.540;2024-03-23T07:20:02;2.10;;;1.90;;
1785;SDS011;890;48.158;11.540;2024-03-23T07:22:30;2.37;;;2.17;;
1785;SDS011;890;48.158;11.540;2024-03-23T07:24:56;3.47;;;2.00;;
1785;SDS011;890;48.158;11.540;2024-03-23T07:27:24;2.47;;;2.17;;
1785;SDS011;890;48.158;11.540;2024-03-23T07:29:51;2.83;;;2.17;;
1785;SDS011;890;48.158;11.540;2024-03-23T07:32:16;2.30;;;2.10;;
1785;SDS011;890;48.158;11.540;2024-03-23T07:34:42;2.60;;;2.00;;
1785;SDS011;890;48.158;11.540;2024-03-23T07:37:09;3.00;;;2.40;;
1785;SDS011;890;48.158;11.540;2024-03-23T07:39:35;4.17;;;2.33;;
1785;SDS011;890;48.158;11.540;2024-03-23T07:42:01;3.20;;;1.90;;
1785;SDS011;890;48.158;11.540;2024-03-23T07:44:27;2.83;;;2.57;;
1785;SDS011;890;48.158;11.540;2024-03-23T07:46:53;2.50;;;2.30;;
1785;SDS011;890;48.158;11.540;2024-03-23T07:49:19;5.17;;;3.10;;
1785;SDS011;890;48.158;11.540;2024-03-23T07:51:45;2.97;;;2.60;;
1785;SDS011;890;48.158;11.540;2024-03-23T07:54:10;3.30;;;2.60;;
1785;SDS011;890;48.158;11.540;2024-03-23T07:56:36;3.00;;;2.73;;
1785;SDS011;890;48.158;11.540;2024-03-23T07:59:02;3.63;;;3.00;;
1785;SDS011;890;48.158;11.540;2024-03-23T08:01:30;2.70;;;2.50;;
1785;SDS011;890;48.158;11.540;2024-03-23T08:03:57;4.40;;;2.90;;
1785;SDS011;890;48.158;11.540;2024-03-23T08:06:23;3.77;;;3.20;;
1785;SDS011;890;48.158;11.540;2024-03-23T08:08:51;3.17;;;2.87;;
1785;SDS011;890;48.158;11.540;2024-03-23T08:11:27;4.30;;;3.30;;
1785;SDS011;890;48.158;11.540;2024-03-23T08:13:54;4.90;;;3.23;;
1785;SDS011;890;48.158;11.540;2024-03-23T08:16:20;3.80;;;3.50;;
1785;SDS011;890;48.158;11.540;2024-03-23T08:18:46;5.27;;;4.53;;
1785;SDS011;890;48.158;11.540;2024-03-23T08:21:12;3.97;;;3.60;;
1785;SDS011;890;48.158;11.540;2024-03-23T08:23:38;5.93;;;4.00;;
1785;SDS011;890;48.158;11.540;2024-03-23T08:26:08;4.50;;;3.47;;
1785;SDS011;890;48.158;11.540;2024-03-23T08:28:37;4.70;;;4.30;;
1785;SDS011;890;48.158;11.540;2024-03-23T08:31:05;5.13;;;3.90;;
1785;SDS011;890;48.158;11.540;2024-03-23T08:33:32;3.63;;;3.23;;
1785;SDS011;890;48.158;11.540;2024-03-23T08:35:59;4.20;;;2.60;;
1785;SDS011;890;48.158;11.540;2024-03-23T08:38:26;3.87;;;3.13;;
1785;SDS011;890;48.158;11.540;2024-03-23T08:40:56;3.37;;;3.07;;
1785;SDS011;890;48.158;11.540;2024-03-23T08:43:27;4.03;;;3.00;;
1785;SDS011;890;48.158;11.540;2024-03-23T08:46:02;3.27;;;2.73;;
1785;SDS011;890;48.158;11.540;2024-03-23T08:48:36;3.60;;;2.93;;
1785;SDS011;890;48.158;11.540;2024-03-23T08:51:08;3.50;;;3.03;;
1785;SDS011;890;48.158;11.540;2024-03-23T08:53:35;4.87;;;3.43;;
1785;SDS011;890;48.158;11.540;2024-03-23T08:56:01;3.83;;;3.43;;
1785;SDS011;890;48.158;11.540;2024-03-23T08:58:29;3.20;;;2.90;;
1785;SDS011;890;48.158;11.540;2024-03-23T09:00:56;3.10;;;2.80;;
1785;SDS011;890;48.158;11.540;2024-03-23T09:03:28;5.03;;;3.13;;
1785;SDS011;890;48.158;11.540;2024-03-23T09:05:53;3.30;;;2.97;;
1785;SDS011;890;48.158;11.540;2024-03-23T09:08:20;3.60;;;3.30;;
1785;SDS011;890;48.158;11.540;2024-03-23T09:10:46;3.80;;;3.43;;
1785;SDS011;890;48.158;11.540;2024-03-23T09:13:13;3.93;;;3.40;;
1785;SDS011;890;48.158;11.540;2024-03-23T09:15:45;4.30;;;3.80;;
1785;SDS011;890;48.158;11.540;2024-03-23T09:18:16;5.67;;;3.77;;
1785;SDS011;890;48.158;11.540;2024-03-23T09:20:42;4.60;;;4.20;;
1785;SDS011;890;48.158;11.540;2024-03-23T09:23:08;5.10;;;3.70;;
1785;SDS011;890;48.158;11.540;2024-03-23T09:25:37;4.40;;;3.50;;
1785;SDS011;890;48.158;11.540;2024-03-23T09:28:04;4.80;;;4.30;;
1785;SDS011;890;48.158;11.540;2024-03-23T09:30:32;5.03;;;4.17;;
1785;SDS011;890;48.158;11.540;2024-03-23T09:32:58;5.07;;;4.10;;
1785;SDS011;890;48.158;11.540;2024-03-23T09:35:24;4.50;;;4.00;;
1785;SDS011;890;48.158;11.540;2024-03-23T09:37:50;4.67;;;3.97;;
1785;SDS011;890;48.158;11.540;2024-03-23T09:40:16;3.87;;;3.30;;
1785;SDS011;890;48.158;11.540;2024-03-23T09:42:49;5.07;;;2.40;;
1785;SDS011;890;48.158;11.540;2024-03-23T09:45:24;2.80;;;2.60;;
1785;SDS011;890;48.158;11.540;2024-03-23T09:47:52;3.70;;;2.23;;
1785;SDS011;890;48.158;11.540;2024-03-23T09:50:19;2.20;;;2.00;;
1785;SDS011;890;48.158;11.540;2024-03-23T09:52:45;3.33;;;1.87;;
1785;SDS011;890;48.158;11.540;2024-03-23T09:55:11;2.67;;;1.87;;
1785;SDS011;890;48.158;11.540;2024-03-23T09:57:38;4.30;;;2.13;;
1785;SDS011;890;48.158;11.540;2024-03-23T10:00:04;2.93;;;2.20;;
1785;SDS011;890;48.158;11.540;2024-03-23T10:02:31;2.10;;;1.83;;
1785;SDS011;890;48.158;11.540;2024-03-23T10:04:57;1.90;;;1.70;;
1785;SDS011;890;48.158;11.540;2024-03-23T10:07:23;1.70;;;1.30;;
1785;SDS011;890;48.158;11.540;2024-03-23T10:09:50;2.23;;;1.80;;
1785;SDS011;890;48.158;11.540;2024-03-23T10:12:17;2.40;;;1.30;;
1785;SDS011;890;48.158;11.540;2024-03-23T10:14:43;1.37;;;1.17;;
1785;SDS011;890;48.158;11.540;2024-03-23T10:17:16;1.33;;;1.23;;
1785;SDS011;890;48.158;11.540;2024-03-23T10:19:47;2.10;;;1.50;;
1785;SDS011;890;48.158;11.540;2024-03-23T10:22:18;3.30;;;1.33;;
1785;SDS011;890;48.158;11.540;2024-03-23T10:24:44;1.63;;;1.43;;
1785;SDS011;890;48.158;11.540;2024-03-23T10:27:15;1.60;;;1.47;;
1785;SDS011;890;48.158;11.540;2024-03-23T10:29:42;2.10;;;1.80;;
1785;SDS011;890;48.158;11.540;2024-03-23T10:32:13;2.03;;;1.83;;
1785;SDS011;890;48.158;11.540;2024-03-23T10:34:39;1.90;;;1.60;;
1785;SDS011;890;48.158;11.540;2024-03-23T10:37:06;2.00;;;1.80;;
1785;SDS011;890;48.158;11.540;2024-03-23T10:39:33;2.67;;;1.80;;
1785;SDS011;890;48.158;11.540;2024-03-23T10:42:04;2.40;;;1.63;;
1785;SDS011;890;48.158;11.540;2024-03-23T10:44:31;4.23;;;1.60;;
1785;SDS011;890;48.158;11.540;2024-03-23T10:47:00;2.23;;;1.60;;
1785;SDS011;890;48.158;11.540;2024-03-23T10:49:30;1.30;;;1.10;;
1785;SDS011;890;48.158;11.540;2024-03-23T10:52:00;2.60;;;1.20;;
1785;SDS011;890;48.158;11.540;2024-03-23T10:54:27;1.60;;;1.10;;
1785;SDS011;890;48.158;11.540;2024-03-23T10:59:38;1.70;;;1.20;;
1785;SDS011;890;48.158;11.540;2024-03-23T11:02:04;1.30;;;1.20;;
1785;SDS011;890;48.158;11.540;2024-03-23T11:07:00;1.40;;;1.00;;
1785;SDS011;890;48.158;11.540;2024-03-23T11:09:39;1.60;;;0.97;;
1785;SDS011;890;48.158;11.540;2024-03-23T11:14:50;1.60;;;1.27;;
1785;SDS011;890;48.158;11.540;2024-03-23T11:17:25;1.27;;;1.17;;
1785;SDS011;890;48.158;11.540;2024-03-23T11:19:55;2.40;;;1.20;;
1785;SDS011;890;48.158;11.540;2024-03-23T11:22:37;1.93;;;1.30;;
1785;SDS011;890;48.158;11.540;2024-03-23T11:25:23;7.10;;;1.87;;
1785;SDS011;890;48.158;11.540;2024-03-23T11:27:51;1.50;;;1.03;;
1785;SDS011;890;48.158;11.540;2024-03-23T11:30:22;1.27;;;1.07;;
1785;SDS011;890;48.158;11.540;2024-03-23T11:32:49;1.57;;;1.20;;
1785;SDS011;890;48.158;11.540;2024-03-23T11:35:35;1.30;;;1.20;;
1785;SDS011;890;48.158;11.540;2024-03-23T11:40:41;2.03;;;1.43;;
1785;SDS011;890;48.158;11.540;2024-03-23T11:43:08;1.97;;;1.50;;
1785;SDS011;890;48.158;11.540;2024-03-23T11:45:39;2.40;;;1.40;;
1785;SDS011;890;48.158;11.540;2024-03-23T11:50:37;1.60;;;1.50;;
1785;SDS011;890;48.158;11.540;2024-03-23T11:53:09;2.07;;;1.47;;
1785;SDS011;890;48.158;11.540;2024-03-23T11:55:41;2.07;;;1.50;;
1785;SDS011;890;48.158;11.540;2024-03-23T11:58:23;2.20;;;1.73;;
1785;SDS011;890;48.158;11.540;2024-03-23T12:00:50;2.30;;;1.77;;
1785;SDS011;890;48.158;11.540;2024-03-23T12:03:18;3.30;;;2.20;;
1785;SDS011;890;48.158;11.540;2024-03-23T12:05:49;2.27;;;1.90;;
1785;SDS011;890;48.158;11.540;2024-03-23T12:10:49;2.30;;;1.77;;
1785;SDS011;890;48.158;11.540;2024-03-23T12:13:29;4.97;;;2.20;;
1785;SDS011;890;48.158;11.540;2024-03-23T12:15:57;2.30;;;2.00;;
1785;SDS011;890;48.158;11.540;2024-03-23T12:18:52;2.23;;;1.93;;
1785;SDS011;890;48.158;11.540;2024-03-23T12:21:18;2.33;;;1.93;;
1785;SDS011;890;48.158;11.540;2024-03-23T12:23:44;2.80;;;2.30;;
1785;SDS011;890;48.158;11.540;2024-03-23T12:26:11;4.10;;;2.30;;
1785;SDS011;890;48.158;11.540;2024-03-23T12:28:37;2.97;;;2.40;;
1785;SDS011;890;48.158;11.540;2024-03-23T12:31:04;2.93;;;2.43;;
1785;SDS011;890;48.158;11.540;2024-03-23T12:33:30;4.00;;;2.27;;
1785;SDS011;890;48.158;11.540;2024-03-23T12:35:56;3.03;;;2.50;;
1785;SDS011;890;48.158;11.540;2024-03-23T12:38:22;2.60;;;2.40;;
1785;SDS011;890;48.158;11.540;2024-03-23T12:40:48;2.50;;;2.30;;
1785;SDS011;890;48.158;11.540;2024-03-23T12:43:14;6.37;;;2.97;;
1785;SDS011;890;48.158;11.540;2024-03-23T12:45:40;4.93;;;2.60;;
1785;SDS011;890;48.158;11.540;2024-03-23T12:48:10;3.30;;;2.47;;
1785;SDS011;890;48.158;11.540;2024-03-23T12:50:36;3.50;;;2.30;;
1785;SDS011;890;48.158;11.540;2024-03-23T12:53:02;3.90;;;2.30;;
1785;SDS011;890;48.158;11.540;2024-03-23T12:55:28;3.87;;;2.43;;
1785;SDS011;890;48.158;11.540;2024-03-23T12:57:54;3.53;;;2.30;;
1785;SDS011;890;48.158;11.540;2024-03-23T13:00:20;3.80;;;2.50;;
1785;SDS011;890;48.158;11.540;2024-03-23T13:02:45;3.57;;;2.30;;
1785;SDS011;890;48.158;11.540;2024-03-23T13:05:11;3.70;;;2.70;;
1785;SDS011;890;48.158;11.540;2024-03-23T13:07:37;2.97;;;2.63;;
1785;SDS011;890;48.158;11.540;2024-03-23T13:10:04;5.57;;;2.60;;
1785;SDS011;890;48.158;11.540;2024-03-23T13:12:30;3.90;;;2.63;;
1785;SDS011;890;48.158;11.540;2024-03-23T13:14:57;3.47;;;2.37;;
1785;SDS011;890;48.158;11.540;2024-03-23T13:17:24;4.60;;;2.63;;
1785;SDS011;890;48.158;11.540;2024-03-23T13:19:49;3.83;;;2.30;;
1785;SDS011;890;48.158;11.540;2024-03-23T13:22:16;4.17;;;2.77;;
1785;SDS011;890;48.158;11.540;2024-03-23T13:24:41;3.77;;;2.33;;
1785;SDS011;890;48.158;11.540;2024-03-23T13:27:07;3.80;;;2.50;;
1785;SDS011;890;48.158;11.540;2024-03-23T13:29:34;3.23;;;2.40;;
1785;SDS011;890;48.158;11.540;2024-03-23T13:32:00;4.27;;;2.70;;
1785;SDS011;890;48.158;11.540;2024-03-23T13:34:26;3.50;;;2.50;;
1785;SDS011;890;48.158;11.540;2024-03-23T13:36:52;3.53;;;3.10;;
1785;SDS011;890;48.158;11.540;2024-03-23T13:39:18;3.63;;;2.43;;
1785;SDS011;890;48.158;11.540;2024-03-23T13:41:45;4.20;;;3.03;;
1785;SDS011;890;48.158;11.540;2024-03-23T13:44:11;5.57;;;3.03;;
1785;SDS011;890;48.158;11.540;2024-03-23T13:46:38;3.33;;;2.30;;
1785;SDS011;890;48.158;11.540;2024-03-23T13:49:05;3.77;;;2.90;;
1785;SDS011;890;48.158;11.540;2024-03-23T13:51:31;3.60;;;3.30;;
1785;SDS011;890;48.158;11.540;2024-03-23T13:53:57;8.20;;;5.77;;
1785;SDS011;890;48.158;11.540;2024-03-23T13:56:26;8.77;;;7.00;;
1785;SDS011;890;48.158;11.540;2024-03-23T13:58:55;5.80;;;5.00;;
1785;SDS011;890;48.158;11.540;2024-03-23T14:01:21;6.70;;;4.53;;
1785;SDS011;890;48.158;11.540;2024-03-23T14:03:47;5.30;;;3.90;;
1785;SDS011;890;48.158;11.540;2024-03-23T14:06:13;5.03;;;3.87;;
1785;SDS011;890;48.158;11.540;2024-03-23T14:08:39;7.87;;;4.33;;
1785;SDS011;890;48.158;11.540;2024-03-23T14:11:05;8.43;;;4.80;;
1785;SDS011;890;48.158;11.540;2024-03-23T14:13:31;7.80;;;5.03;;
1785;SDS011;890;48.158;11.540;2024-03-23T14:15:58;5.40;;;4.20;;
1785;SDS011;890;48.158;11.540;2024-03-23T14:18:24;7.40;;;4.80;;
1785;SDS011;890;48.158;11.540;2024-03-23T14:20:51;7.17;;;4.67;;
1785;SDS011;890;48.158;11.540;2024-03-23T14:23:18;5.40;;;4.03;;
1785;SDS011;890;48.158;11.540;2024-03-23T14:25:44;6.27;;;4.63;;
1785;SDS011;890;48.158;11.540;2024-03-23T14:28:10;5.93;;;4.40;;
1785;SDS011;890;48.158;11.540;2024-03-23T14:30:40;7.60;;;4.00;;
1785;SDS011;890;48.158;11.540;2024-03-23T14:33:06;6.93;;;3.73;;
1785;SDS011;890;48.158;11.540;2024-03-23T14:35:32;4.80;;;3.73;;
1785;SDS011;890;48.158;11.540;2024-03-23T14:37:58;4.90;;;2.50;;
1785;SDS011;890;48.158;11.540;2024-03-23T14:40:24;4.23;;;2.20;;
1785;SDS011;890;48.158;11.540;2024-03-23T14:42:53;3.03;;;1.97;;
1785;SDS011;890;48.158;11.540;2024-03-23T14:45:21;2.20;;;2.00;;
1785;SDS011;890;48.158;11.540;2024-03-23T14:47:49;4.60;;;2.23;;
1785;SDS011;890;48.158;11.540;2024-03-23T14:50:17;3.83;;;1.70;;
1785;SDS011;890;48.158;11.540;2024-03-23T14:52:44;3.73;;;1.90;;
1785;SDS011;890;48.158;11.540;2024-03-23T14:55:10;3.13;;;2.13;;
1785;SDS011;890;48.158;11.540;2024-03-23T14:57:37;4.10;;;2.10;;
1785;SDS011;890;48.158;11.540;2024-03-23T15:00:05;3.33;;;1.90;;
1785;SDS011;890;48.158;11.540;2024-03-23T15:02:37;4.33;;;2.20;;
1785;SDS011;890;48.158;11.540;2024-03-23T15:05:03;3.23;;;2.00;;
1785;SDS011;890;48.158;11.540;2024-03-23T15:07:33;3.23;;;1.90;;
1785;SDS011;890;48.158;11.540;2024-03-23T15:09:58;4.17;;;2.40;;
1785;SDS011;890;48.158;11.540;2024-03-23T15:12:25;4.50;;;2.30;;
1785;SDS011;890;48.158;11.540;2024-03-23T15:14:51;4.70;;;2.70;;
1785;SDS011;890;48.158;11.540;2024-03-23T15:17:17;3.00;;;2.40;;
1785;SDS011;890;48.158;11.540;2024-03-23T15:19:43;5.70;;;2.70;;
1785;SDS011;890;48.158;11.540;2024-03-23T15:22:09;4.10;;;2.63;;
1785;SDS011;890;48.158;11.540;2024-03-23T15:24:35;4.63;;;2.60;;
1785;SDS011;890;48.158;11.540;2024-03-23T15:27:02;4.10;;;2.60;;
1785;SDS011;890;48.158;11.540;2024-03-23T15:29:28;3.70;;;2.70;;
1785;SDS011;890;48.158;11.540;2024-03-23T15:31:55;5.30;;;2.50;;
1785;SDS011;890;48.158;11.540;2024-03-23T15:34:21;3.70;;;2.77;;
1785;SDS011;890;48.158;11.540;2024-03-23T15:36:48;4.10;;;2.83;;
1785;SDS011;890;48.158;11.540;2024-03-23T15:39:15;5.27;;;3.30;;
1785;SDS011;890;48.158;11.540;2024-03-23T15:41:43;3.80;;;2.87;;
1785;SDS011;890;48.158;11.540;2024-03-23T15:44:09;3.50;;;3.10;;
1785;SDS011;890;48.158;11.540;2024-03-23T15:46:35;3.70;;;2.70;;
1785;SDS011;890;48.158;11.540;2024-03-23T15:49:01;5.43;;;2.70;;
1785;SDS011;890;48.158;11.540;2024-03-23T15:51:27;4.73;;;3.00;;
1785;SDS011;890;48.158;11.540;2024-03-23T15:53:58;4.03;;;3.13;;
1785;SDS011;890;48.158;11.540;2024-03-23T15:56:24;6.93;;;3.23;;
1785;SDS011;890;48.158;11.540;2024-03-23T15:58:50;4.60;;;3.17;;
1785;SDS011;890;48.158;11.540;2024-03-23T16:01:16;4.40;;;3.40;;
1785;SDS011;890;48.158;11.540;2024-03-23T16:03:41;5.40;;;3.70;;
1785;SDS011;890;48.158;11.540;2024-03-23T16:06:07;3.93;;;3.50;;
1785;SDS011;890;48.158;11.540;2024-03-23T16:08:33;4.60;;;3.37;;
1785;SDS011;890;48.158;11.540;2024-03-23T16:11:00;5.47;;;3.57;;
1785;SDS011;890;48.158;11.540;2024-03-23T16:13:27;6.70;;;3.60;;
1785;SDS011;890;48.158;11.540;2024-03-23T16:15:57;7.87;;;4.40;;
1785;SDS011;890;48.158;11.540;2024-03-23T16:18:24;6.53;;;4.47;;
1785;SDS011;890;48.158;11.540;2024-03-23T16:20:57;6.30;;;3.93;;